Once Around — WDH7510 — position and weather

sailwx.info

Track history (hours):
 
Tides and Currents Weather Stations Pressure Air Temp Water Temp Dewpoint Dewpoint Depression Visibility Wind Speed Wind Dir Waves Ship Positions

Once Around

Owner: Siegal, Arthur R, Quincy, MA. More information available from US FCC via Universal Licensing System and Coast Guard Vessel Documentation Center.

Last reported at 2018-Feb-24 05:55 UTC. Time now 2018-Feb-24 06:18 UTC.
Position N 25°47' W 080°10'.

Length 22 m.

MMSI: 367648880.

Date/timePositionNaut miles runAvg speedWind from/ knotsBaromVisibWave heightAir tempDewpointWater temp
2018-Feb-24 05:55N 25°47' W 080°10'0 0.0
2018-Feb-24 05:28N 25°47' W 080°10'0 0.0
2018-Feb-24 04:58N 25°47' W 080°10'0 0.0
2018-Feb-24 04:25N 25°47' W 080°10'0 0.0
2018-Feb-24 03:55N 25°47' W 080°10'0 0.0
2018-Feb-24 03:28N 25°47' W 080°10'0 0.0
2018-Feb-24 02:49N 25°47' W 080°10'0 0.0
2018-Feb-24 02:19N 25°47' W 080°10'0 0.0
2018-Feb-24 01:55N 25°47' W 080°10'0 0.0
2018-Feb-24 01:25N 25°47' W 080°10'0 0.0
2018-Feb-24 00:55N 25°47' W 080°10'0 0.0
2018-Feb-24 00:16N 25°47' W 080°10'0 0.0
2018-Feb-23 23:55N 25°47' W 080°10'1 1.2
2018-Feb-23 23:29N 25°47' W 080°10'3 5.4
2018-Feb-23 23:00N 25°45' W 080°11'3 6.0
2018-Feb-23 22:26N 25°41' W 080°11'0 0.0
2018-Feb-23 21:56N 25°41' W 080°11'0 0.0
2018-Feb-23 21:23N 25°41' W 080°11'0 0.0
2018-Feb-23 20:59N 25°41' W 080°11'0 0.0
2018-Feb-23 20:23N 25°41' W 080°11'0 0.0
2018-Feb-23 19:59N 25°41' W 080°11'0 0.0
2018-Feb-23 19:23N 25°41' W 080°11'0 0.0
2018-Feb-23 18:49N 25°41' W 080°11'2 5.8
2018-Feb-23 18:28N 25°43' W 080°11'3 6.0
2018-Feb-23 18:00N 25°46' W 080°11'2 3.8
2018-Feb-23 17:30N 25°47' W 080°09'1 1.0
2018-Feb-23 16:55N 25°47' W 080°10'0 0.0
2018-Feb-23 16:28N 25°47' W 080°10'0 0.0
2018-Feb-23 15:58N 25°47' W 080°10'0 0.0
2018-Feb-23 15:19N 25°47' W 080°10'0 0.0
2018-Feb-23 14:58N 25°47' W 080°10'0 0.0
2018-Feb-23 14:25N 25°47' W 080°10'0 0.0
2018-Feb-23 13:58N 25°47' W 080°10'0 0.0
2018-Feb-23 13:28N 25°47' W 080°10'0 0.0
2018-Feb-23 12:58N 25°47' W 080°10'0 0.0
2018-Feb-23 12:22N 25°47' W 080°10'0 0.0
2018-Feb-23 11:55N 25°47' W 080°10'0 0.0
2018-Feb-23 11:28N 25°47' W 080°10'0 0.0
2018-Feb-23 10:52N 25°47' W 080°10'0 0.0
2018-Feb-23 10:28N 25°47' W 080°10'0 0.0
2018-Feb-23 09:58N 25°47' W 080°10'0 0.0
2018-Feb-23 09:28N 25°47' W 080°10'0 0.0
2018-Feb-23 08:58N 25°47' W 080°10'0 0.0
2018-Feb-23 08:25N 25°47' W 080°10'0 0.0
2018-Feb-23 07:58N 25°47' W 080°10'0 0.0
2018-Feb-23 07:28N 25°47' W 080°10'0 0.0
2018-Feb-23 06:58N 25°47' W 080°10'0 0.0
2018-Feb-23 06:28N 25°47' W 080°10'0 0.0
2018-Feb-23 05:58N 25°47' W 080°10'0 0.0
2018-Feb-23 05:28N 25°47' W 080°10'0 0.0
2018-Feb-23 04:58N 25°47' W 080°10'0 0.0
2018-Feb-23 04:28N 25°47' W 080°10'0 0.0
2018-Feb-23 03:58N 25°47' W 080°10'0 0.0
2018-Feb-23 03:28N 25°47' W 080°10'0 0.0
2018-Feb-23 02:55N 25°47' W 080°10'0 0.0
2018-Feb-23 02:28N 25°47' W 080°10'0 0.0
2018-Feb-23 01:58N 25°47' W 080°10'0 0.0
2018-Feb-23 01:28N 25°47' W 080°10'0 0.0
2018-Feb-23 00:55N 25°47' W 080°10'0 0.0
2018-Feb-23 00:25N 25°47' W 080°10'0 0.0
2018-Feb-22 23:58N 25°47' W 080°10'0 0.0
2018-Feb-22 23:25N 25°47' W 080°10'0 0.0
2018-Feb-22 22:58N 25°47' W 080°10'0 0.0
2018-Feb-22 22:28N 25°47' W 080°10'0 0.0
2018-Feb-22 21:55N 25°47' W 080°10'0 0.0
2018-Feb-22 21:28N 25°47' W 080°10'0 0.0
2018-Feb-22 20:55N 25°47' W 080°10'0 0.0
2018-Feb-22 20:28N 25°47' W 080°10'0 0.0
2018-Feb-22 19:58N 25°47' W 080°10'0 0.0
2018-Feb-22 19:19N 25°47' W 080°10'0 0.0
2018-Feb-22 18:55N 25°47' W 080°10'0 0.0
2018-Feb-22 18:25N 25°47' W 080°10'0 0.0
2018-Feb-22 17:55N 25°47' W 080°10'0 0.0
2018-Feb-22 17:19N 25°47' W 080°10'0 0.0
2018-Feb-22 16:58N 25°47' W 080°10'0 0.0
2018-Feb-22 16:28N 25°47' W 080°10'0 0.0
2018-Feb-22 15:58N 25°47' W 080°10'0 0.0
2018-Feb-22 15:28N 25°47' W 080°10'0 0.0
2018-Feb-22 14:58N 25°47' W 080°10'0 0.0
2018-Feb-22 14:28N 25°47' W 080°10'0 0.0
2018-Feb-22 13:58N 25°47' W 080°10'0 0.0
2018-Feb-22 13:28N 25°47' W 080°10'0 0.0
2018-Feb-22 12:55N 25°47' W 080°10'0 0.0
2018-Feb-22 12:28N 25°47' W 080°10'0 0.0
2018-Feb-22 11:58N 25°47' W 080°10'0 0.0
2018-Feb-22 11:28N 25°47' W 080°10'0 0.0
2018-Feb-22 10:58N 25°47' W 080°10'0 0.0
2018-Feb-22 10:28N 25°47' W 080°10'0 0.0
2018-Feb-22 09:58N 25°47' W 080°10'0 0.0
2018-Feb-22 09:28N 25°47' W 080°10'0 0.0
2018-Feb-22 08:55N 25°47' W 080°10'0 0.0
2018-Feb-22 08:28N 25°47' W 080°10'0 0.0
2018-Feb-22 07:58N 25°47' W 080°10'0 0.0
2018-Feb-22 07:28N 25°47' W 080°10'0 0.0
2018-Feb-22 06:58N 25°47' W 080°10'0 0.0
2018-Feb-22 06:28N 25°47' W 080°10'0 0.0
2018-Feb-22 05:58N 25°47' W 080°10'0 0.0
2018-Feb-22 05:28N 25°47' W 080°10'0 0.0
2018-Feb-22 04:58N 25°47' W 080°10'0 0.0
2018-Feb-22 04:28N 25°47' W 080°10'0 0.0
2018-Feb-22 03:55N 25°47' W 080°10'0 0.0
2018-Feb-22 03:28N 25°47' W 080°10'0 0.0
2018-Feb-22 02:58N 25°47' W 080°10'0 0.0
2018-Feb-22 02:28N 25°47' W 080°10'0 0.0
2018-Feb-22 01:58N 25°47' W 080°10'0 0.0
2018-Feb-22 01:28N 25°47' W 080°10'0 0.0
2018-Feb-22 00:58N 25°47' W 080°10'0 0.0
2018-Feb-22 00:28N 25°47' W 080°10'0 0.0
2018-Feb-21 23:55N 25°47' W 080°10'0 0.0
2018-Feb-21 23:28N 25°47' W 080°10'0 0.0
2018-Feb-21 22:58N 25°47' W 080°10'0 0.0
2018-Feb-21 22:28N 25°47' W 080°10'0 0.0
2018-Feb-21 21:58N 25°47' W 080°10'0 0.0
2018-Feb-21 21:28N 25°47' W 080°10'0 0.0
2018-Feb-21 20:58N 25°47' W 080°10'0 0.0
2018-Feb-21 20:25N 25°47' W 080°10'0 0.0
2018-Feb-21 19:58N 25°47' W 080°10'0 0.0
2018-Feb-21 19:28N 25°47' W 080°10'0 0.0
2018-Feb-21 18:55N 25°47' W 080°10'0 0.0
2018-Feb-21 18:28N 25°47' W 080°10'1 1.6
2018-Feb-21 18:00N 25°48' W 080°09'2 3.4
2018-Feb-21 17:29N 25°49' W 080°08'2 1.2
2018-Feb-21 16:13N 25°50' W 080°07'1 0.6
2018-Feb-21 15:07N 25°50' W 080°07'0 0.0
2018-Feb-21 14:40N 25°50' W 080°07'0 0.0
2018-Feb-21 14:22N 25°50' W 080°07'0 0.0
2018-Feb-21 13:37N 25°50' W 080°07'0 0.0
2018-Feb-21 13:22N 25°50' W 080°07'0 0.0
2018-Feb-21 12:52N 25°50' W 080°07'0 0.0
2018-Feb-21 12:28N 25°50' W 080°07'0 0.0
2018-Feb-21 11:58N 25°50' W 080°07'0 0.0
2018-Feb-21 11:10N 25°50' W 080°07'0 0.0
2018-Feb-21 10:55N 25°50' W 080°07'0 0.0
2018-Feb-21 10:17N 25°50' W 080°07'0 0.0
2018-Feb-21 09:55N 25°50' W 080°07'0 0.0
2018-Feb-21 09:28N 25°50' W 080°07'0 0.0
2018-Feb-21 07:46N 25°50' W 080°07'0 0.0
2018-Feb-21 07:16N 25°50' W 080°07'0 0.0
2018-Feb-21 06:04N 25°50' W 080°07'0 0.0
2018-Feb-21 05:46N 25°50' W 080°07'0 0.0
2018-Feb-21 05:16N 25°50' W 080°07'0 0.0
2018-Feb-21 04:52N 25°50' W 080°07'0 0.0
2018-Feb-21 04:22N 25°50' W 080°07'0 0.0
2018-Feb-21 03:52N 25°50' W 080°07'0 0.0
2018-Feb-21 03:22N 25°50' W 080°07'0 0.0
2018-Feb-21 02:52N 25°50' W 080°07'0 0.0
2018-Feb-21 02:22N 25°50' W 080°07'0 0.0
2018-Feb-21 01:52N 25°50' W 080°07'0 0.0
2018-Feb-21 01:25N 25°50' W 080°07'0 0.0
2018-Feb-21 00:55N 25°50' W 080°07'0 0.0
2018-Feb-21 00:22N 25°50' W 080°07'0 0.0
2018-Feb-20 23:40N 25°50' W 080°07'0 0.0
2018-Feb-20 23:22N 25°50' W 080°07'0 0.0
2018-Feb-20 22:10N 25°50' W 080°07'0 0.0
2018-Feb-20 21:40N 25°50' W 080°07'0 0.0
2018-Feb-20 21:25N 25°50' W 080°07'0 0.0
2018-Feb-20 20:58N 25°50' W 080°07'0 0.0
2018-Feb-20 20:25N 25°50' W 080°07'0 0.0
2018-Feb-20 19:43N 25°50' W 080°07'0 0.0
2018-Feb-20 19:28N 25°50' W 080°07'0 0.0
2018-Feb-20 18:58N 25°50' W 080°07'0 0.0
2018-Feb-20 18:28N 25°50' W 080°07'0 0.0
2018-Feb-20 17:31N 25°50' W 080°07'0 0.0
2018-Feb-20 17:28N 25°50' W 080°07'0 0.0
2018-Feb-20 16:49N 25°50' W 080°07'0 0.0
2018-Feb-20 16:19N 25°50' W 080°07'0 0.0
2018-Feb-20 15:46N 25°50' W 080°07'0 0.0
2018-Feb-20 10:10N 25°50' W 080°07'0 0.0
2018-Feb-20 09:40N 25°50' W 080°07'0 0.0
2018-Feb-20 09:28N 25°50' W 080°07'0 0.0
2018-Feb-20 03:58N 25°50' W 080°07'0 0.0
2018-Feb-20 03:16N 25°50' W 080°07'0 0.0
2018-Feb-20 02:58N 25°50' W 080°07'0 0.0
2018-Feb-20 02:19N 25°50' W 080°07'0 0.0
2018-Feb-20 01:47N 25°50' W 080°07'0 0.0
2018-Feb-20 01:19N 25°50' W 080°07'0 0.0
2018-Feb-20 00:46N 25°50' W 080°07'0 0.0
2018-Feb-20 00:22N 25°50' W 080°07'0 0.0
2018-Feb-19 22:10N 25°50' W 080°07'0 0.0
2018-Feb-19 20:52N 25°50' W 080°07'  
2018-Feb-14 13:44N 25°53' W 080°07'312.0
2018-Feb-14 13:29N 25°50' W 080°07'0 0.0
2018-Feb-14 11:35N 25°50' W 080°07'0 0.0
2018-Feb-14 09:38N 25°50' W 080°07'  
Track history (hours):
 
Tides and Currents Weather Stations Pressure Air Temp Water Temp Dewpoint Dewpoint Depression Visibility Wind Speed Wind Dir Waves Ship Positions

Once Around

Owner: Siegal, Arthur R, Quincy, MA. More information available from US FCC via Universal Licensing System and Coast Guard Vessel Documentation Center.

Last reported at 2018-Feb-24 05:55 UTC. Time now 2018-Feb-24 06:18 UTC.
Position N 25°47' W 080°10'.

Length 22 m.

MMSI: 367648880.

Date/timePositionNaut miles runAvg speedWind from/ knotsBaromVisibWave heightAir tempDewpointWater temp
2018-Feb-24 05:55N 25°47' W 080°10'0 0.0
2018-Feb-24 05:28N 25°47' W 080°10'0 0.0
2018-Feb-24 04:58N 25°47' W 080°10'0 0.0
2018-Feb-24 04:25N 25°47' W 080°10'0 0.0
2018-Feb-24 03:55N 25°47' W 080°10'0 0.0
2018-Feb-24 03:28N 25°47' W 080°10'0 0.0
2018-Feb-24 02:49N 25°47' W 080°10'0 0.0
2018-Feb-24 02:19N 25°47' W 080°10'0 0.0
2018-Feb-24 01:55N 25°47' W 080°10'0 0.0
2018-Feb-24 01:25N 25°47' W 080°10'0 0.0
2018-Feb-24 00:55N 25°47' W 080°10'0 0.0
2018-Feb-24 00:16N 25°47' W 080°10'0 0.0
2018-Feb-23 23:55N 25°47' W 080°10'1 1.2
2018-Feb-23 23:29N 25°47' W 080°10'3 5.4
2018-Feb-23 23:00N 25°45' W 080°11'3 6.0
2018-Feb-23 22:26N 25°41' W 080°11'0 0.0
2018-Feb-23 21:56N 25°41' W 080°11'0 0.0
2018-Feb-23 21:23N 25°41' W 080°11'0 0.0
2018-Feb-23 20:59N 25°41' W 080°11'0 0.0
2018-Feb-23 20:23N 25°41' W 080°11'0 0.0
2018-Feb-23 19:59N 25°41' W 080°11'0 0.0
2018-Feb-23 19:23N 25°41' W 080°11'0 0.0
2018-Feb-23 18:49N 25°41' W 080°11'2 5.8
2018-Feb-23 18:28N 25°43' W 080°11'3 6.0
2018-Feb-23 18:00N 25°46' W 080°11'2 3.8
2018-Feb-23 17:30N 25°47' W 080°09'1 1.0
2018-Feb-23 16:55N 25°47' W 080°10'0 0.0
2018-Feb-23 16:28N 25°47' W 080°10'0 0.0
2018-Feb-23 15:58N 25°47' W 080°10'0 0.0
2018-Feb-23 15:19N 25°47' W 080°10'0 0.0
2018-Feb-23 14:58N 25°47' W 080°10'0 0.0
2018-Feb-23 14:25N 25°47' W 080°10'0 0.0
2018-Feb-23 13:58N 25°47' W 080°10'0 0.0
2018-Feb-23 13:28N 25°47' W 080°10'0 0.0
2018-Feb-23 12:58N 25°47' W 080°10'0 0.0
2018-Feb-23 12:22N 25°47' W 080°10'0 0.0
2018-Feb-23 11:55N 25°47' W 080°10'0 0.0
2018-Feb-23 11:28N 25°47' W 080°10'0 0.0
2018-Feb-23 10:52N 25°47' W 080°10'0 0.0
2018-Feb-23 10:28N 25°47' W 080°10'0 0.0
2018-Feb-23 09:58N 25°47' W 080°10'0 0.0
2018-Feb-23 09:28N 25°47' W 080°10'0 0.0
2018-Feb-23 08:58N 25°47' W 080°10'0 0.0
2018-Feb-23 08:25N 25°47' W 080°10'0 0.0
2018-Feb-23 07:58N 25°47' W 080°10'0 0.0
2018-Feb-23 07:28N 25°47' W 080°10'0 0.0
2018-Feb-23 06:58N 25°47' W 080°10'0 0.0
2018-Feb-23 06:28N 25°47' W 080°10'0 0.0
2018-Feb-23 05:58N 25°47' W 080°10'0 0.0
2018-Feb-23 05:28N 25°47' W 080°10'0 0.0
2018-Feb-23 04:58N 25°47' W 080°10'0 0.0
2018-Feb-23 04:28N 25°47' W 080°10'0 0.0
2018-Feb-23 03:58N 25°47' W 080°10'0 0.0
2018-Feb-23 03:28N 25°47' W 080°10'0 0.0
2018-Feb-23 02:55N 25°47' W 080°10'0 0.0
2018-Feb-23 02:28N 25°47' W 080°10'0 0.0
2018-Feb-23 01:58N 25°47' W 080°10'0 0.0
2018-Feb-23 01:28N 25°47' W 080°10'0 0.0
2018-Feb-23 00:55N 25°47' W 080°10'0 0.0
2018-Feb-23 00:25N 25°47' W 080°10'0 0.0
2018-Feb-22 23:58N 25°47' W 080°10'0 0.0
2018-Feb-22 23:25N 25°47' W 080°10'0 0.0
2018-Feb-22 22:58N 25°47' W 080°10'0 0.0
2018-Feb-22 22:28N 25°47' W 080°10'0 0.0
2018-Feb-22 21:55N 25°47' W 080°10'0 0.0
2018-Feb-22 21:28N 25°47' W 080°10'0 0.0
2018-Feb-22 20:55N 25°47' W 080°10'0 0.0
2018-Feb-22 20:28N 25°47' W 080°10'0 0.0
2018-Feb-22 19:58N 25°47' W 080°10'0 0.0
2018-Feb-22 19:19N 25°47' W 080°10'0 0.0
2018-Feb-22 18:55N 25°47' W 080°10'0 0.0
2018-Feb-22 18:25N 25°47' W 080°10'0 0.0
2018-Feb-22 17:55N 25°47' W 080°10'0 0.0
2018-Feb-22 17:19N 25°47' W 080°10'0 0.0
2018-Feb-22 16:58N 25°47' W 080°10'0 0.0
2018-Feb-22 16:28N 25°47' W 080°10'0 0.0
2018-Feb-22 15:58N 25°47' W 080°10'0 0.0
2018-Feb-22 15:28N 25°47' W 080°10'0 0.0
2018-Feb-22 14:58N 25°47' W 080°10'0 0.0
2018-Feb-22 14:28N 25°47' W 080°10'0 0.0
2018-Feb-22 13:58N 25°47' W 080°10'0 0.0
2018-Feb-22 13:28N 25°47' W 080°10'0 0.0
2018-Feb-22 12:55N 25°47' W 080°10'0 0.0
2018-Feb-22 12:28N 25°47' W 080°10'0 0.0
2018-Feb-22 11:58N 25°47' W 080°10'0 0.0
2018-Feb-22 11:28N 25°47' W 080°10'0 0.0
2018-Feb-22 10:58N 25°47' W 080°10'0 0.0
2018-Feb-22 10:28N 25°47' W 080°10'0 0.0
2018-Feb-22 09:58N 25°47' W 080°10'0 0.0
2018-Feb-22 09:28N 25°47' W 080°10'0 0.0
2018-Feb-22 08:55N 25°47' W 080°10'0 0.0
2018-Feb-22 08:28N 25°47' W 080°10'0 0.0
2018-Feb-22 07:58N 25°47' W 080°10'0 0.0
2018-Feb-22 07:28N 25°47' W 080°10'0 0.0
2018-Feb-22 06:58N 25°47' W 080°10'0 0.0
2018-Feb-22 06:28N 25°47' W 080°10'0 0.0
2018-Feb-22 05:58N 25°47' W 080°10'0 0.0
2018-Feb-22 05:28N 25°47' W 080°10'0 0.0
2018-Feb-22 04:58N 25°47' W 080°10'0 0.0
2018-Feb-22 04:28N 25°47' W 080°10'0 0.0
2018-Feb-22 03:55N 25°47' W 080°10'0 0.0
2018-Feb-22 03:28N 25°47' W 080°10'0 0.0
2018-Feb-22 02:58N 25°47' W 080°10'0 0.0
2018-Feb-22 02:28N 25°47' W 080°10'0 0.0
2018-Feb-22 01:58N 25°47' W 080°10'0 0.0
2018-Feb-22 01:28N 25°47' W 080°10'0 0.0
2018-Feb-22 00:58N 25°47' W 080°10'0 0.0
2018-Feb-22 00:28N 25°47' W 080°10'0 0.0
2018-Feb-21 23:55N 25°47' W 080°10'0 0.0
2018-Feb-21 23:28N 25°47' W 080°10'0 0.0
2018-Feb-21 22:58N 25°47' W 080°10'0 0.0
2018-Feb-21 22:28N 25°47' W 080°10'0 0.0
2018-Feb-21 21:58N 25°47' W 080°10'0 0.0
2018-Feb-21 21:28N 25°47' W 080°10'0 0.0
2018-Feb-21 20:58N 25°47' W 080°10'0 0.0
2018-Feb-21 20:25N 25°47' W 080°10'0 0.0
2018-Feb-21 19:58N 25°47' W 080°10'0 0.0
2018-Feb-21 19:28N 25°47' W 080°10'0 0.0
2018-Feb-21 18:55N 25°47' W 080°10'0 0.0
2018-Feb-21 18:28N 25°47' W 080°10'1 1.6
2018-Feb-21 18:00N 25°48' W 080°09'2 3.4
2018-Feb-21 17:29N 25°49' W 080°08'2 1.2
2018-Feb-21 16:13N 25°50' W 080°07'1 0.6
2018-Feb-21 15:07N 25°50' W 080°07'0 0.0
2018-Feb-21 14:40N 25°50' W 080°07'0 0.0
2018-Feb-21 14:22N 25°50' W 080°07'0 0.0
2018-Feb-21 13:37N 25°50' W 080°07'0 0.0
2018-Feb-21 13:22N 25°50' W 080°07'0 0.0
2018-Feb-21 12:52N 25°50' W 080°07'0 0.0
2018-Feb-21 12:28N 25°50' W 080°07'0 0.0
2018-Feb-21 11:58N 25°50' W 080°07'0 0.0
2018-Feb-21 11:10N 25°50' W 080°07'0 0.0
2018-Feb-21 10:55N 25°50' W 080°07'0 0.0
2018-Feb-21 10:17N 25°50' W 080°07'0 0.0
2018-Feb-21 09:55N 25°50' W 080°07'0 0.0
2018-Feb-21 09:28N 25°50' W 080°07'0 0.0
2018-Feb-21 07:46N 25°50' W 080°07'0 0.0
2018-Feb-21 07:16N 25°50' W 080°07'0 0.0
2018-Feb-21 06:04N 25°50' W 080°07'0 0.0
2018-Feb-21 05:46N 25°50' W 080°07'0 0.0
2018-Feb-21 05:16N 25°50' W 080°07'0 0.0
2018-Feb-21 04:52N 25°50' W 080°07'0 0.0
2018-Feb-21 04:22N 25°50' W 080°07'0 0.0
2018-Feb-21 03:52N 25°50' W 080°07'0 0.0
2018-Feb-21 03:22N 25°50' W 080°07'0 0.0
2018-Feb-21 02:52N 25°50' W 080°07'0 0.0
2018-Feb-21 02:22N 25°50' W 080°07'0 0.0
2018-Feb-21 01:52N 25°50' W 080°07'0 0.0
2018-Feb-21 01:25N 25°50' W 080°07'0 0.0
2018-Feb-21 00:55N 25°50' W 080°07'0 0.0
2018-Feb-21 00:22N 25°50' W 080°07'0 0.0
2018-Feb-20 23:40N 25°50' W 080°07'0 0.0
2018-Feb-20 23:22N 25°50' W 080°07'0 0.0
2018-Feb-20 22:10N 25°50' W 080°07'0 0.0
2018-Feb-20 21:40N 25°50' W 080°07'0 0.0
2018-Feb-20 21:25N 25°50' W 080°07'0 0.0
2018-Feb-20 20:58N 25°50' W 080°07'0 0.0
2018-Feb-20 20:25N 25°50' W 080°07'0 0.0
2018-Feb-20 19:43N 25°50' W 080°07'0 0.0
2018-Feb-20 19:28N 25°50' W 080°07'0 0.0
2018-Feb-20 18:58N 25°50' W 080°07'0 0.0
2018-Feb-20 18:28N 25°50' W 080°07'0 0.0
2018-Feb-20 17:31N 25°50' W 080°07'0 0.0
2018-Feb-20 17:28N 25°50' W 080°07'0 0.0
2018-Feb-20 16:49N 25°50' W 080°07'0 0.0
2018-Feb-20 16:19N 25°50' W 080°07'0 0.0
2018-Feb-20 15:46N 25°50' W 080°07'0 0.0
2018-Feb-20 10:10N 25°50' W 080°07'0 0.0
2018-Feb-20 09:40N 25°50' W 080°07'0 0.0
2018-Feb-20 09:28N 25°50' W 080°07'0 0.0
2018-Feb-20 03:58N 25°50' W 080°07'0 0.0
2018-Feb-20 03:16N 25°50' W 080°07'0 0.0
2018-Feb-20 02:58N 25°50' W 080°07'0 0.0
2018-Feb-20 02:19N 25°50' W 080°07'0 0.0
2018-Feb-20 01:47N 25°50' W 080°07'0 0.0
2018-Feb-20 01:19N 25°50' W 080°07'0 0.0
2018-Feb-20 00:46N 25°50' W 080°07'0 0.0
2018-Feb-20 00:22N 25°50' W 080°07'0 0.0
2018-Feb-19 22:10N 25°50' W 080°07'0 0.0
2018-Feb-19 20:52N 25°50' W 080°07'  
2018-Feb-14 13:44N 25°53' W 080°07'312.0
2018-Feb-14 13:29N 25°50' W 080°07'0 0.0
2018-Feb-14 11:35N 25°50' W 080°07'0 0.0
2018-Feb-14 09:38N 25°50' W 080°07'  

Dump ship's entire track history